createdAt,value
2022-08-25T00:00:15.018Z,2.20
2022-08-25T00:02:41.560Z,2.12
2022-08-25T00:05:22.204Z,2.08
2022-08-25T00:07:48.738Z,2.15
2022-08-25T00:10:15.116Z,2.16
2022-08-25T00:12:41.510Z,2.21
2022-08-25T00:15:07.947Z,2.15
2022-08-25T00:17:34.333Z,1.96
2022-08-25T00:20:00.718Z,2.18
2022-08-25T00:22:27.136Z,2.07
2022-08-25T00:24:53.510Z,2.14
2022-08-25T00:27:19.934Z,2.13
2022-08-25T00:29:46.379Z,2.05
2022-08-25T00:32:12.760Z,2.20
2022-08-25T00:34:39.138Z,2.14
2022-08-25T00:37:05.677Z,2.11
2022-08-25T00:39:32.046Z,1.98
2022-08-25T00:41:58.446Z,2.02
2022-08-25T00:44:24.862Z,2.18
2022-08-25T00:46:51.242Z,2.28
2022-08-25T00:49:25.124Z,2.11
2022-08-25T00:51:52.059Z,2.30
2022-08-25T00:54:18.430Z,2.16
2022-08-25T00:56:44.804Z,2.13
2022-08-25T00:59:11.232Z,2.36
2022-08-25T01:01:37.663Z,2.30
2022-08-25T01:04:04.052Z,2.15
2022-08-25T01:06:30.486Z,2.02
2022-08-25T01:08:56.843Z,2.11
2022-08-25T01:11:23.212Z,1.99
2022-08-25T01:13:49.652Z,2.15
2022-08-25T01:16:16.102Z,2.23
2022-08-25T01:18:42.535Z,2.25
2022-08-25T01:21:08.976Z,2.31
2022-08-25T01:23:35.349Z,2.20
2022-08-25T01:26:01.802Z,2.25
2022-08-25T01:28:28.226Z,2.02
2022-08-25T01:30:54.664Z,1.99
2022-08-25T01:33:22.429Z,2.01
2022-08-25T01:35:48.868Z,2.16
2022-08-25T01:38:15.260Z,2.21
2022-08-25T01:40:41.656Z,2.05
2022-08-25T01:43:08.206Z,2.22
2022-08-25T01:45:34.593Z,2.10
2022-08-25T01:48:01.024Z,2.26
2022-08-25T01:50:27.494Z,2.15
2022-08-25T01:52:53.871Z,2.10
2022-08-25T01:55:20.239Z,2.46
2022-08-25T01:57:46.654Z,2.06
2022-08-25T02:00:13.030Z,2.02
2022-08-25T02:02:40.301Z,2.14
2022-08-25T02:05:09.367Z,2.18
2022-08-25T02:07:35.754Z,2.42
2022-08-25T02:10:03.441Z,2.18
2022-08-25T02:12:30.086Z,2.31
2022-08-25T02:14:56.478Z,2.27
2022-08-25T02:17:22.864Z,2.28
2022-08-25T02:19:49.301Z,2.23
2022-08-25T02:22:15.685Z,2.45
2022-08-25T02:24:46.092Z,2.26
2022-08-25T02:27:12.568Z,2.30
2022-08-25T02:29:38.964Z,2.48
2022-08-25T02:32:05.398Z,2.43
2022-08-25T02:34:33.227Z,2.01
2022-08-25T02:36:59.599Z,2.27
2022-08-25T02:39:26.027Z,2.16
2022-08-25T02:41:52.442Z,2.27
2022-08-25T02:44:18.815Z,2.65
2022-08-25T02:46:45.196Z,2.35
2022-08-25T02:49:11.672Z,2.43
2022-08-25T02:51:38.046Z,2.32
2022-08-25T02:54:04.420Z,2.35
2022-08-25T02:56:30.960Z,2.72
2022-08-25T02:58:57.345Z,2.59
2022-08-25T03:01:28.371Z,2.49
2022-08-25T03:03:55.412Z,2.49
2022-08-25T03:06:21.864Z,2.43
2022-08-25T03:08:48.259Z,2.40
2022-08-25T03:11:14.682Z,2.62
2022-08-25T03:13:41.084Z,2.49
2022-08-25T03:16:11.391Z,2.29
2022-08-25T03:18:38.812Z,2.56
2022-08-25T03:21:05.199Z,2.49
2022-08-25T03:23:31.594Z,2.56
2022-08-25T03:25:58.038Z,2.50
2022-08-25T03:28:29.936Z,2.43
2022-08-25T03:30:56.649Z,2.56
2022-08-25T03:33:23.128Z,2.43
2022-08-25T03:35:49.504Z,2.36
2022-08-25T03:38:15.901Z,2.51
2022-08-25T03:40:42.364Z,2.22
2022-08-25T03:43:08.761Z,2.45
2022-08-25T03:45:35.212Z,2.67
2022-08-25T03:48:01.793Z,2.40
2022-08-25T03:50:28.229Z,2.54
2022-08-25T03:52:54.653Z,2.48
2022-08-25T03:55:21.071Z,2.50
2022-08-25T03:57:47.448Z,2.57
2022-08-25T04:00:13.842Z,2.70
2022-08-25T04:02:40.333Z,2.55
2022-08-25T04:05:06.723Z,2.59
2022-08-25T04:07:33.304Z,2.77
2022-08-25T04:09:59.734Z,2.85
2022-08-25T04:12:26.111Z,2.54
2022-08-25T04:14:52.479Z,2.65
2022-08-25T04:17:18.880Z,2.63
2022-08-25T04:19:45.262Z,2.72
2022-08-25T04:22:11.641Z,2.80
2022-08-25T04:24:39.708Z,2.88
2022-08-25T04:27:06.090Z,2.94
2022-08-25T04:29:33.346Z,2.68
2022-08-25T04:31:59.884Z,2.68
2022-08-25T04:34:30.524Z,2.69
2022-08-25T04:36:57.628Z,3.13
2022-08-25T04:39:24.046Z,2.80
2022-08-25T04:41:50.424Z,2.91
2022-08-25T04:44:16.802Z,2.92
2022-08-25T04:46:43.256Z,2.55
2022-08-25T04:49:09.664Z,2.83
2022-08-25T04:51:36.034Z,2.82
2022-08-25T04:54:02.459Z,2.87
2022-08-25T04:56:28.845Z,3.03
2022-08-25T04:58:55.227Z,3.14
2022-08-25T05:01:21.682Z,2.98
2022-08-25T05:03:48.152Z,2.94
2022-08-25T05:06:16.182Z,3.11
2022-08-25T05:08:42.875Z,3.09
2022-08-25T05:11:12.488Z,2.80
2022-08-25T05:13:39.328Z,2.89
2022-08-25T05:16:05.914Z,3.10
2022-08-25T05:18:36.175Z,2.97
2022-08-25T05:21:02.542Z,2.94
2022-08-25T05:23:28.955Z,3.04
2022-08-25T05:25:55.324Z,3.25
2022-08-25T05:28:21.700Z,3.09
2022-08-25T05:30:48.181Z,3.18
2022-08-25T05:33:14.576Z,3.12
2022-08-25T05:35:40.959Z,3.19
2022-08-25T05:38:07.413Z,3.18
2022-08-25T05:40:41.552Z,3.15
2022-08-25T05:43:07.989Z,3.34
2022-08-25T05:45:34.410Z,3.68
2022-08-25T05:48:00.824Z,3.72
2022-08-25T05:50:27.367Z,3.80
2022-08-25T05:52:53.744Z,3.96
2022-08-25T05:55:20.119Z,3.73
2022-08-25T05:57:46.564Z,3.86
2022-08-25T06:00:12.952Z,3.68
2022-08-25T06:02:39.343Z,3.68
2022-08-25T06:05:05.831Z,3.48
2022-08-25T06:07:32.236Z,3.31
2022-08-25T06:09:58.665Z,3.19
2022-08-25T06:12:25.141Z,3.24
2022-08-25T06:14:51.551Z,3.56
2022-08-25T06:17:17.952Z,3.00
2022-08-25T06:19:44.412Z,3.45
2022-08-25T06:22:10.922Z,3.32
2022-08-25T06:24:37.386Z,3.45
2022-08-25T06:27:03.923Z,2.87
2022-08-25T06:29:30.309Z,2.94
2022-08-25T06:31:56.759Z,2.71
2022-08-25T06:34:23.833Z,2.77
2022-08-25T06:36:50.704Z,2.99
2022-08-25T06:39:17.094Z,2.69
2022-08-25T06:41:43.570Z,2.53
2022-08-25T06:44:09.982Z,2.97
2022-08-25T06:46:37.216Z,2.76
2022-08-25T06:49:03.786Z,2.86
2022-08-25T06:51:30.178Z,3.11
2022-08-25T06:53:56.564Z,3.00
2022-08-25T06:56:23.010Z,2.97
2022-08-25T06:58:50.440Z,3.04
2022-08-25T07:01:20.363Z,2.87
2022-08-25T07:03:47.179Z,2.85
2022-08-25T07:06:14.061Z,2.93
2022-08-25T07:08:41.070Z,2.87
2022-08-25T07:11:07.533Z,2.81
2022-08-25T07:13:42.527Z,2.95
2022-08-25T07:16:09.041Z,3.06
2022-08-25T07:18:35.434Z,2.85
2022-08-25T07:21:01.824Z,2.88
2022-08-25T07:23:28.278Z,3.24
2022-08-25T07:25:54.661Z,2.93
2022-08-25T07:28:21.046Z,3.08
2022-08-25T07:33:33.849Z,2.97
2022-08-25T07:36:00.561Z,2.78
2022-08-25T07:38:26.943Z,2.88
2022-08-25T07:40:53.518Z,2.98
2022-08-25T07:43:20.135Z,2.98
2022-08-25T07:45:49.474Z,2.84
2022-08-25T07:48:16.038Z,3.19
2022-08-25T07:50:45.067Z,3.13
2022-08-25T07:53:11.471Z,3.18
2022-08-25T07:55:38.939Z,3.10
2022-08-25T07:58:05.639Z,2.95
2022-08-25T08:00:32.034Z,2.98
2022-08-25T08:02:58.533Z,3.19
2022-08-25T08:05:25.232Z,3.14
2022-08-25T08:07:51.611Z,3.19
2022-08-25T08:11:00.498Z,3.22
2022-08-25T08:13:07.026Z,3.14
2022-08-25T08:15:33.868Z,3.24
2022-08-25T08:18:00.287Z,3.13
2022-08-25T08:20:27.168Z,3.48
2022-08-25T08:22:53.555Z,3.32
2022-08-25T08:25:21.289Z,3.42
2022-08-25T08:27:50.748Z,3.27
2022-08-25T08:30:21.234Z,2.93
2022-08-25T08:33:08.586Z,3.21
2022-08-25T08:35:35.880Z,3.47
2022-08-25T08:38:02.456Z,3.62
2022-08-25T08:40:28.926Z,3.67
2022-08-25T08:42:55.574Z,3.07
2022-08-25T08:45:21.998Z,3.45
2022-08-25T08:47:48.386Z,3.40
2022-08-25T08:50:18.655Z,3.40
2022-08-25T08:52:49.670Z,3.29
2022-08-25T08:55:16.080Z,3.47
2022-08-25T08:57:42.527Z,3.58
2022-08-25T09:00:09.077Z,3.47
2022-08-25T09:02:39.364Z,3.49
2022-08-25T09:05:16.986Z,3.60
2022-08-25T09:07:43.422Z,3.27
2022-08-25T09:10:13.701Z,3.45
2022-08-25T09:12:40.180Z,3.48
2022-08-25T09:15:12.783Z,3.60
2022-08-25T09:17:40.310Z,3.67
2022-08-25T09:20:18.223Z,3.41
2022-08-25T09:22:46.827Z,3.55
2022-08-25T09:25:18.773Z,3.32
2022-08-25T09:27:48.745Z,3.33
2022-08-25T09:30:15.212Z,3.18
2022-08-25T09:32:41.627Z,3.43
2022-08-25T09:35:15.515Z,3.33
2022-08-25T09:37:41.896Z,3.53
2022-08-25T09:40:08.322Z,3.71
2022-08-25T09:42:34.813Z,3.48
2022-08-25T09:45:01.230Z,3.43
2022-08-25T09:47:27.610Z,3.45
2022-08-25T09:49:54.623Z,3.48
2022-08-25T09:52:21.956Z,3.25
2022-08-25T09:54:48.369Z,3.60
2022-08-25T09:57:14.808Z,3.67
2022-08-25T09:59:42.072Z,3.25
2022-08-25T10:02:23.977Z,3.48
2022-08-25T10:04:50.458Z,3.52
2022-08-25T10:07:17.106Z,3.59
2022-08-25T10:09:43.546Z,3.56
2022-08-25T10:12:09.932Z,3.53
2022-08-25T10:14:37.464Z,3.72
2022-08-25T10:17:03.934Z,3.57
2022-08-25T10:19:30.527Z,3.53
2022-08-25T10:21:56.909Z,3.65
2022-08-25T10:24:23.321Z,3.64
2022-08-25T10:26:50.039Z,3.25
2022-08-25T10:29:16.679Z,3.39
2022-08-25T10:31:43.100Z,3.29
2022-08-25T10:34:09.510Z,3.47
2022-08-25T10:36:35.904Z,3.42
2022-08-25T10:39:03.601Z,3.50
2022-08-25T10:41:30.005Z,3.43
2022-08-25T10:43:56.399Z,3.41
2022-08-25T10:46:25.191Z,3.63
2022-08-25T10:48:51.641Z,3.60
2022-08-25T10:51:21.521Z,3.63
2022-08-25T10:53:51.403Z,3.67
2022-08-25T10:56:17.948Z,3.44
2022-08-25T10:58:44.367Z,3.59
2022-08-25T11:01:10.846Z,3.42
2022-08-25T11:03:37.237Z,3.42
2022-08-25T11:06:03.650Z,3.48
2022-08-25T11:08:30.144Z,3.26
2022-08-25T11:10:56.538Z,3.52
2022-08-25T11:13:22.912Z,3.41
2022-08-25T11:16:06.615Z,3.31
2022-08-25T11:18:35.707Z,3.36
2022-08-25T11:21:02.120Z,3.44
2022-08-25T11:23:28.507Z,3.32
2022-08-25T11:25:54.877Z,3.50
2022-08-25T11:28:22.358Z,3.54
2022-08-25T11:30:48.824Z,3.49
2022-08-25T11:33:15.211Z,3.35
2022-08-25T11:35:41.655Z,3.05
2022-08-25T11:38:08.798Z,3.32
2022-08-25T11:40:36.352Z,3.29
2022-08-25T11:43:03.254Z,3.31
2022-08-25T11:45:34.501Z,3.41
2022-08-25T11:48:00.939Z,3.32
2022-08-25T11:50:30.309Z,2.96
2022-08-25T11:52:57.006Z,3.20
2022-08-25T11:55:23.494Z,3.53
2022-08-25T11:57:53.239Z,3.43
2022-08-25T12:00:20.032Z,3.10
2022-08-25T12:02:47.060Z,3.15
2022-08-25T12:05:13.574Z,3.05
2022-08-25T12:07:40.126Z,3.26
2022-08-25T12:10:06.513Z,2.87
2022-08-25T12:12:32.939Z,2.93
2022-08-25T12:14:59.322Z,3.01
2022-08-25T12:17:25.738Z,3.01
2022-08-25T12:19:52.174Z,3.05
2022-08-25T12:22:19.797Z,3.09
2022-08-25T12:24:47.916Z,3.04
2022-08-25T12:27:15.033Z,2.90
2022-08-25T12:29:41.439Z,3.00
2022-08-25T12:32:09.410Z,2.89
2022-08-25T12:34:36.093Z,2.71
2022-08-25T12:37:02.593Z,2.81
2022-08-25T12:39:32.927Z,2.90
2022-08-25T12:41:59.400Z,2.99
2022-08-25T12:44:26.302Z,2.88
2022-08-25T12:46:52.674Z,2.94
2022-08-25T12:49:20.975Z,2.78
2022-08-25T12:51:48.607Z,3.06
2022-08-25T12:54:15.843Z,3.28
2022-08-25T12:56:47.771Z,3.12
2022-08-25T12:59:14.271Z,2.98
2022-08-25T13:01:40.747Z,3.01
2022-08-25T13:04:09.293Z,3.03
2022-08-25T13:06:35.842Z,3.37
2022-08-25T13:09:02.385Z,3.25
2022-08-25T13:11:34.854Z,3.41
2022-08-25T13:14:01.231Z,3.56
2022-08-25T13:16:29.594Z,3.44
2022-08-25T13:18:57.486Z,3.51
2022-08-25T13:21:23.862Z,3.44
2022-08-25T13:23:50.719Z,3.15
2022-08-25T13:26:20.490Z,3.28
2022-08-25T13:28:50.185Z,3.26
2022-08-25T13:31:16.905Z,3.49
2022-08-25T13:33:45.122Z,3.44
2022-08-25T13:36:12.933Z,3.30
2022-08-25T13:38:39.586Z,3.28
2022-08-25T13:41:09.356Z,3.31
2022-08-25T13:43:36.071Z,3.12
2022-08-25T13:46:02.509Z,3.34
2022-08-25T13:48:29.068Z,3.42
2022-08-25T13:50:55.487Z,3.51
2022-08-25T13:53:21.948Z,3.38
2022-08-25T13:55:50.892Z,3.33
2022-08-25T13:58:24.247Z,3.60
2022-08-25T14:00:53.748Z,3.68
2022-08-25T14:03:20.309Z,3.55
2022-08-25T14:05:56.421Z,3.28
2022-08-25T14:08:25.892Z,3.34
2022-08-25T14:10:52.434Z,3.00
2022-08-25T14:13:19.322Z,3.41
2022-08-25T14:15:45.744Z,3.11
2022-08-25T14:18:14.113Z,3.10
2022-08-25T14:20:41.679Z,3.10
2022-08-25T14:23:09.977Z,3.13
2022-08-25T14:25:36.674Z,3.38
2022-08-25T14:28:08.054Z,3.35
2022-08-25T14:30:34.861Z,3.20
2022-08-25T14:33:01.269Z,3.06
2022-08-25T14:35:27.707Z,3.29
2022-08-25T14:37:54.106Z,3.37
2022-08-25T14:40:20.558Z,3.50
2022-08-25T14:42:47.074Z,3.36
2022-08-25T14:45:13.451Z,3.40
2022-08-25T14:47:39.827Z,3.19
2022-08-25T14:50:06.540Z,3.26
2022-08-25T14:52:34.371Z,3.47
2022-08-25T14:55:00.740Z,3.76
2022-08-25T14:57:27.158Z,3.52
2022-08-25T14:59:53.581Z,3.36
2022-08-25T15:02:20.298Z,3.39
2022-08-25T15:04:49.321Z,3.29
2022-08-25T15:07:18.302Z,3.59
2022-08-25T15:09:44.688Z,3.57
2022-08-25T15:12:14.906Z,3.64
2022-08-25T15:14:44.083Z,3.19
2022-08-25T15:17:11.917Z,3.33
2022-08-25T15:19:41.199Z,3.37
2022-08-25T15:22:07.565Z,3.60
2022-08-25T15:24:37.945Z,3.32
2022-08-25T15:27:05.392Z,3.04
2022-08-25T15:29:31.799Z,3.50
2022-08-25T15:31:58.382Z,3.44
2022-08-25T15:34:24.909Z,3.40
2022-08-25T15:36:51.305Z,3.46
2022-08-25T15:39:18.066Z,3.39
2022-08-25T15:41:45.454Z,3.16
2022-08-25T15:44:12.466Z,3.34
2022-08-25T15:46:39.259Z,3.39
2022-08-25T15:49:05.740Z,3.79
2022-08-25T15:51:34.384Z,3.48
2022-08-25T15:54:01.082Z,3.55
2022-08-25T15:56:27.462Z,3.66
2022-08-25T15:58:53.858Z,3.89
2022-08-25T16:01:20.359Z,3.85
2022-08-25T16:03:46.754Z,3.61
2022-08-25T16:06:13.130Z,3.84
2022-08-25T16:08:39.650Z,3.41
2022-08-25T16:11:09.065Z,3.44
2022-08-25T16:13:35.451Z,3.98
2022-08-25T16:16:01.909Z,3.78
2022-08-25T16:18:28.410Z,4.07
2022-08-25T16:20:54.796Z,3.97
2022-08-25T16:23:21.373Z,3.76
2022-08-25T16:25:47.747Z,3.71
2022-08-25T16:28:14.302Z,3.92
2022-08-25T16:30:40.719Z,3.76
2022-08-25T16:33:07.342Z,4.10
2022-08-25T16:35:36.425Z,4.12
2022-08-25T16:38:07.369Z,4.26
2022-08-25T16:40:33.981Z,4.28
2022-08-25T16:43:00.867Z,4.28
2022-08-25T16:45:27.322Z,4.62
2022-08-25T16:47:53.701Z,4.20
2022-08-25T16:50:20.136Z,3.95
2022-08-25T16:52:46.869Z,3.99
2022-08-25T16:55:15.978Z,4.54
2022-08-25T16:57:42.713Z,4.56
2022-08-25T17:00:09.395Z,4.55
2022-08-25T17:02:36.401Z,4.73
2022-08-25T17:05:02.780Z,4.36
2022-08-25T17:07:29.224Z,4.46
2022-08-25T17:09:58.076Z,4.85
2022-08-25T17:12:24.450Z,4.95
2022-08-25T17:14:50.873Z,5.05
2022-08-25T17:17:17.276Z,4.81
2022-08-25T17:19:46.055Z,4.77
2022-08-25T17:22:13.318Z,4.84
2022-08-25T17:24:42.842Z,5.20
2022-08-25T17:27:09.253Z,5.09
2022-08-25T17:29:35.685Z,4.73
2022-08-25T17:32:02.729Z,4.83
2022-08-25T17:34:29.108Z,4.72
2022-08-25T17:36:55.523Z,4.41
2022-08-25T17:39:22.593Z,4.72
2022-08-25T17:41:48.991Z,4.82
2022-08-25T17:44:16.348Z,5.03
2022-08-25T17:46:47.584Z,5.14
2022-08-25T17:49:14.322Z,5.03
2022-08-25T17:51:41.934Z,5.35
2022-08-25T17:54:08.307Z,5.22
2022-08-25T17:56:34.688Z,5.22
2022-08-25T17:59:01.116Z,5.04
2022-08-25T18:01:27.531Z,5.31
2022-08-25T18:03:53.966Z,5.47
2022-08-25T18:06:20.410Z,5.40
2022-08-25T18:08:52.275Z,5.33
2022-08-25T18:11:20.983Z,5.16
2022-08-25T18:13:47.391Z,5.69
2022-08-25T18:16:16.842Z,5.12
2022-08-25T18:18:45.569Z,5.30
2022-08-25T18:21:11.949Z,5.44
2022-08-25T18:23:38.324Z,5.34
2022-08-25T18:26:06.689Z,5.26
2022-08-25T18:28:33.199Z,5.31
2022-08-25T18:31:01.730Z,5.74
2022-08-25T18:33:29.964Z,5.48
2022-08-25T18:35:56.522Z,5.46
2022-08-25T18:38:22.902Z,5.30
2022-08-25T18:40:49.417Z,4.96
2022-08-25T18:43:15.794Z,5.47
2022-08-25T18:45:42.171Z,5.32
2022-08-25T18:48:08.603Z,4.83
2022-08-25T18:50:34.981Z,4.95
2022-08-25T18:53:01.839Z,4.97
2022-08-25T18:55:28.270Z,5.38
2022-08-25T18:57:54.640Z,5.09
2022-08-25T19:00:21.017Z,4.80
2022-08-25T19:02:47.526Z,4.78
2022-08-25T19:05:13.931Z,5.02
2022-08-25T19:07:40.410Z,4.77
2022-08-25T19:10:06.867Z,4.96
2022-08-25T19:12:33.623Z,4.95
2022-08-25T19:15:03.236Z,4.86
2022-08-25T19:17:37.353Z,4.65
2022-08-25T19:20:04.304Z,4.60
2022-08-25T19:22:41.039Z,4.24
2022-08-25T19:25:07.917Z,4.33
2022-08-25T19:27:35.705Z,4.57
2022-08-25T19:30:02.079Z,4.02
2022-08-25T19:32:28.693Z,4.36
2022-08-25T19:34:55.508Z,4.02
2022-08-25T19:37:21.921Z,3.99
2022-08-25T19:39:52.891Z,3.84
2022-08-25T19:42:37.059Z,3.84
2022-08-25T19:45:04.744Z,3.88
2022-08-25T19:47:31.123Z,3.56
2022-08-25T19:49:58.137Z,3.72
2022-08-25T19:52:24.683Z,3.63
2022-08-25T19:54:53.083Z,3.82
2022-08-25T19:57:28.486Z,3.80
2022-08-25T20:00:05.856Z,3.71
2022-08-25T20:02:32.482Z,3.56
2022-08-25T20:04:58.900Z,3.64
2022-08-25T20:07:26.334Z,3.57
2022-08-25T20:09:52.721Z,3.54
2022-08-25T20:12:19.100Z,3.67
2022-08-25T20:14:45.557Z,3.88
2022-08-25T20:17:23.032Z,3.45
2022-08-25T20:19:50.593Z,3.49
2022-08-25T20:22:17.675Z,3.45
2022-08-25T20:24:45.103Z,3.69
2022-08-25T20:27:11.564Z,3.56
2022-08-25T20:29:37.951Z,3.31
2022-08-25T20:32:04.333Z,3.46
2022-08-25T20:34:31.718Z,3.33
2022-08-25T20:36:59.065Z,3.62
2022-08-25T20:39:25.437Z,3.68
2022-08-25T20:41:51.864Z,3.83
2022-08-25T20:44:23.317Z,3.78
2022-08-25T20:46:49.825Z,3.76
2022-08-25T20:49:18.142Z,3.73
2022-08-25T20:51:45.023Z,3.75
2022-08-25T20:54:12.513Z,3.87
2022-08-25T20:56:39.051Z,3.54
2022-08-25T20:59:05.422Z,3.66
2022-08-25T21:01:36.966Z,3.67
2022-08-25T21:04:03.405Z,3.97
2022-08-25T21:06:31.448Z,4.00
2022-08-25T21:08:57.809Z,3.67
2022-08-25T21:11:25.833Z,3.84
2022-08-25T21:13:52.210Z,3.55
2022-08-25T21:16:18.838Z,3.78
2022-08-25T21:18:47.974Z,3.49
2022-08-25T21:21:14.652Z,3.67
2022-08-25T21:23:41.025Z,3.74
2022-08-25T21:26:08.291Z,3.95
2022-08-25T21:28:34.671Z,3.87
2022-08-25T21:31:01.906Z,3.86
2022-08-25T21:33:28.439Z,3.80
2022-08-25T21:35:54.817Z,3.86
2022-08-25T21:38:21.214Z,3.57
2022-08-25T21:40:47.653Z,3.61
2022-08-25T21:43:14.965Z,3.66
2022-08-25T21:45:46.656Z,3.95
2022-08-25T21:48:13.577Z,3.67
2022-08-25T21:50:40.413Z,3.67
2022-08-25T21:53:08.563Z,3.99
2022-08-25T21:55:35.512Z,3.70
2022-08-25T21:58:01.903Z,3.89
2022-08-25T22:00:28.285Z,3.65
2022-08-25T22:02:54.776Z,3.69
2022-08-25T22:05:21.212Z,3.72
2022-08-25T22:07:48.245Z,3.81
2022-08-25T22:10:17.903Z,3.61
2022-08-25T22:12:44.550Z,3.57
2022-08-25T22:15:13.599Z,3.47
2022-08-25T22:17:40.298Z,3.68
2022-08-25T22:20:06.668Z,3.78
2022-08-25T22:22:33.608Z,3.82
2022-08-25T22:25:00.113Z,3.79
2022-08-25T22:27:26.526Z,3.48
2022-08-25T22:29:52.940Z,3.44
2022-08-25T22:32:19.418Z,3.50
2022-08-25T22:34:45.794Z,3.71
2022-08-25T22:37:12.176Z,3.48
2022-08-25T22:39:38.602Z,3.60
2022-08-25T22:42:06.764Z,3.55
2022-08-25T22:44:33.167Z,3.59
2022-08-25T22:46:59.595Z,3.08
2022-08-25T22:49:26.876Z,3.51
2022-08-25T22:51:53.836Z,3.68
2022-08-25T22:54:21.948Z,3.61
2022-08-25T22:56:48.316Z,3.49
2022-08-25T22:59:15.367Z,3.82
2022-08-25T23:01:44.320Z,3.46
2022-08-25T23:04:10.888Z,3.89
2022-08-25T23:06:37.366Z,3.45
2022-08-25T23:09:03.828Z,3.31
2022-08-25T23:11:31.784Z,3.44
2022-08-25T23:13:58.246Z,3.33
2022-08-25T23:16:26.551Z,3.43
2022-08-25T23:18:52.947Z,3.45
2022-08-25T23:21:24.149Z,3.33
2022-08-25T23:23:50.838Z,3.51
2022-08-25T23:26:17.340Z,3.52
2022-08-25T23:28:45.750Z,3.46
2022-08-25T23:31:12.329Z,3.12
2022-08-25T23:33:38.713Z,3.35
2022-08-25T23:36:05.633Z,3.42
2022-08-25T23:38:32.120Z,3.35
2022-08-25T23:40:58.892Z,3.29
2022-08-25T23:43:25.951Z,3.30
2022-08-25T23:45:52.486Z,3.39
2022-08-25T23:48:18.946Z,3.21
2022-08-25T23:50:45.333Z,3.46
2022-08-25T23:53:11.880Z,3.49
2022-08-25T23:55:38.275Z,3.45
2022-08-25T23:58:17.902Z,3.44
